全部
Terrell County Airport (Dryden, TX) 6R6 天氣
|
Dryden, TX (6R6)
晴天
微風 |
|
35 °C |
There is no TAF data available at 6R6 or any nearby airports.
6R6近期METAR歷史資料
| Date | Time (CDT) | Flight Rules | Wind Dir. | Speed | Type | Height AGL (ft) | Visibility | Temp (°C) | Temp (°F) | Dew Point (°C) | Dew Point (°F) | Rel. Humid. | Pressure | Density Altitude | Remarks |
|---|---|---|---|---|---|---|---|---|---|---|---|---|---|---|---|
| 05-五月 | 17:51 | n/a | 160° | 4 kt | Missing | 35° | 95° | 8° | 46° | 19% | 29.71 in Hg | 5,408 ft | |||
| 05-五月 | 16:51 | n/a | 200° | 7 kt | Missing | 36° | 96° | 8° | 46° | 19% | 29.73 in Hg | 5,508 ft | |||
| 05-五月 | 15:51 | n/a | 240° | 4 kt | Missing | 34° | 93° | 8° | 46° | 20% | 29.75 in Hg | 5,248 ft | |||
| 05-五月 | 14:51 | n/a | 190° | 5 kt | Missing | 33° | 91° | 8° | 46° | 21% | 29.78 in Hg | 5,098 ft | |||
| 05-五月 | 13:51 | n/a | Variable | 3 kt | Missing | 32° | 89° | 10° | 50° | 26% | 29.80 in Hg | 4,958 ft | |||
| 05-五月 | 12:51 | n/a | Calm | Missing | 31° | 87° | 14° | 57° | 36% | 29.83 in Hg | 4,808 ft | ||||
| 05-五月 | 11:51 | n/a | 50° | 5 kt | Missing | 27° | 80° | 17° | 62° | 53% | 29.84 in Hg | 4,318 ft | |||
| 05-五月 | 10:51 | n/a | Variable | 4 kt | Missing | 25° | 77° | 18° | 64° | 64% | 29.84 in Hg | 4,078 ft | |||
| gap in available data | |||||||||||||||
| 05-五月 | 06:51 | n/a | 20° | 4 kt | Missing | 19° | 66° | 16° | 60° | 84% | 29.79 in Hg | 3,408 ft | |||
| 05-五月 | 05:51 | n/a | 340° | 6 kt | Missing | 18° | 64° | 16° | 60° | 84% | 29.78 in Hg | 3,298 ft | |||
| 05-五月 | 04:51 | n/a | 360° | 5 kt | Missing | 20° | 68° | 16° | 60° | 78% | 29.77 in Hg | 3,548 ft | |||
| 05-五月 | 03:51 | n/a | 360° | 6 kt | Missing | 20° | 68° | 16° | 60° | 78% | 29.77 in Hg | 3,548 ft | |||
| 05-五月 | 02:51 | n/a | 10° | 5 kt | Missing | 21° | 69° | 16° | 60° | 75% | 29.79 in Hg | 3,648 ft | |||
| 05-五月 | 01:51 | n/a | 20° | 6 kt | Missing | 21° | 69° | 16° | 60° | 73% | 29.80 in Hg | 3,638 ft | |||
| 05-五月 | 00:51 | n/a | 60° | 6 kt | Missing | 22° | 71° | 16° | 60° | 68% | 29.82 in Hg | 3,738 ft | |||
| 04-五月 | 23:51 | n/a | 70° | 5 kt | Missing | 23° | 73° | 16° | 60° | 64% | 29.82 in Hg | 3,858 ft | |||
| 04-五月 | 22:51 | n/a | 90° | 7 kt | Missing | 24° | 75° | 16° | 60° | 58% | 29.81 in Hg | 3,988 ft | |||
| 04-五月 | 21:51 | n/a | 70° | 6 kt | Missing | 26° | 78° | 15° | 59° | 52% | 29.81 in Hg | 4,228 ft | |||
| 04-五月 | 20:51 | n/a | 100° | 7 kt | Missing | 27° | 80° | 14° | 57° | 45% | 29.79 in Hg | 4,368 ft | |||
| 04-五月 | 19:51 | n/a | 110° | 10 kt | Missing | 29° | 84° | 14° | 57° | 40% | 29.78 in Hg | 4,618 ft | |||
| 04-五月 | 18:51 | n/a | 110° | 12 kt | Missing | 31° | 87° | 13° | 55° | 35% | 29.79 in Hg | 4,848 ft | |||
| 04-五月 | 17:51 | n/a | 110° | 8 kt | Missing | 31° | 87° | 13° | 55° | 34% | 29.80 in Hg | 4,838 ft | |||
| 04-五月 | 16:51 | n/a | 120° | 9 kt | Missing | 31° | 87° | 13° | 55° | 35% | 29.82 in Hg | 4,818 ft | |||
| 04-五月 | 15:51 | n/a | Variable | 6 kt | Missing | 29° | 84° | 13° | 55° | 36% | 29.86 in Hg | 4,538 ft | |||
登入
| 您的瀏覽器不支援. 升級您的瀏覽器 |
